Time;durP1;ratioP1;P1;durP2;ratioP2;P2;SDS_P1;SDS_P2;PMS_P1;PMS_P2;Temp;Humidity;BMP_temperature;BMP_pressure;BME280_temperature;BME280_humidity;BME280_pressure;Samples;Min_cycle;Max_cycle;Signal;HPM_P1;HPM_P2
2021/11/29 00:03:18;;;;;;;18.33;15.27;;;;;;;4.19;80.82;98630.25;10273958;28;20642;-65
2021/11/29 00:08:20;;;;;;;20.15;16.52;;;;;;;4.21;80.76;98635.41;10273238;28;20050;-65
2021/11/29 00:13:22;;;;;;;20.05;17.90;;;;;;;4.22;80.99;98632.66;10274938;28;20060;-65
2021/11/29 00:18:24;;;;;;;22.60;18.80;;;;;;;4.32;80.84;98645.06;10276428;28;20051;-64
2021/11/29 00:23:26;;;;;;;20.60;17.98;;;;;;;4.33;80.84;98633.59;10274312;28;20129;-65
2021/11/29 00:28:27;;;;;;;19.48;17.40;;;;;;;4.33;80.75;98644.94;10274436;28;20081;-64
2021/11/29 00:33:28;;;;;;;19.70;16.80;;;;;;;4.30;80.89;98639.09;10272459;28;20203;-64
2021/11/29 00:38:30;;;;;;;17.98;16.08;;;;;;;4.43;81.00;98650.34;10269795;28;20047;-67
2021/11/29 00:43:31;;;;;;;17.83;16.02;;;;;;;4.46;80.97;98663.25;10272109;28;20586;-65
2021/11/29 00:48:33;;;;;;;20.75;17.73;;;;;;;4.43;81.51;98661.69;10288277;28;20476;-64
2021/11/29 00:53:34;;;;;;;21.33;18.98;;;;;;;4.39;81.26;98662.06;10273440;28;20054;-66
2021/11/29 00:58:36;;;;;;;18.63;16.73;;;;;;;4.37;80.87;98661.38;10273077;28;20042;-65
2021/11/29 01:03:39;;;;;;;19.58;17.48;;;;;;;4.35;81.40;98673.81;10273717;28;20047;-65
2021/11/29 01:08:40;;;;;;;19.58;16.42;;;;;;;4.34;81.27;98677.38;10268594;28;20049;-66
2021/11/29 01:13:42;;;;;;;19.15;16.85;;;;;;;4.33;80.85;98681.00;10266730;28;20071;-65
2021/11/29 01:18:43;;;;;;;17.33;15.63;;;;;;;4.47;80.66;98693.91;10270291;28;20406;-65
2021/11/29 01:23:45;;;;;;;17.42;15.43;;;;;;;4.50;81.18;98692.81;10274055;28;20050;-65
2021/11/29 01:28:46;;;;;;;19.00;16.50;;;;;;;4.39;81.33;98686.59;10272184;28;20051;-66
2021/11/29 01:33:48;;;;;;;18.30;15.18;;;;;;;4.45;81.42;98692.38;10271972;28;20090;-65
2021/11/29 01:38:49;;;;;;;15.23;13.82;;;;;;;4.58;80.82;98711.50;10284130;28;20073;-65
2021/11/29 01:43:51;;;;;;;18.33;16.23;;;;;;;4.50;80.23;98708.63;10272910;28;20133;-65
2021/11/29 01:48:52;;;;;;;18.58;16.58;;;;;;;4.38;80.13;98705.19;10271105;28;20055;-65
2021/11/29 01:53:53;;;;;;;17.35;15.30;;;;;;;4.37;80.70;98719.31;10271645;28;20046;-64
2021/11/29 01:58:55;;;;;;;18.50;16.63;;;;;;;4.27;80.78;98713.94;10269278;28;20050;-65
2021/11/29 02:03:59;;;;;;;17.15;15.35;;;;;;;4.28;81.43;98717.41;10270613;28;20153;-65
2021/11/29 02:09:01;;;;;;;16.50;14.77;;;;;;;4.33;81.39;98717.88;10274296;28;20713;-65
2021/11/29 02:14:03;;;;;;;18.50;16.40;;;;;;;4.40;80.46;98725.19;10306901;23;20051;-63
2021/11/29 02:19:06;;;;;;;19.92;16.15;;;;;;;4.49;80.27;98720.97;10335840;28;20137;-65
2021/11/29 02:24:08;;;;;;;19.50;16.05;;;;;;;4.51;79.84;98737.50;10309209;28;20134;-63
2021/11/29 02:29:15;;;;;;;16.67;14.65;;;;;;;4.63;78.83;98737.50;10348308;28;20070;-65
2021/11/29 02:34:21;;;;;;;17.73;13.25;;;;;;;4.63;77.96;98735.69;10346970;28;20504;-63
2021/11/29 02:39:24;;;;;;;12.70;10.40;;;;;;;4.38;76.04;98732.38;10347839;28;20431;-64
2021/11/29 02:44:25;;;;;;;9.40;8.45;;;;;;;4.32;75.39;98701.22;10347891;28;20049;-62
2021/11/29 02:49:27;;;;;;;8.90;7.85;;;;;;;4.46;73.74;98752.84;10350815;28;20136;-63
2021/11/29 02:54:32;;;;;;;7.10;6.35;;;;;;;4.36;73.84;98759.78;10349003;28;20070;-62
2021/11/29 02:59:36;;;;;;;6.45;5.85;;;;;;;4.27;72.68;98761.34;10354571;28;20064;-62
2021/11/29 03:04:39;;;;;;;8.53;6.20;;;;;;;4.14;72.93;98769.34;10362712;28;20580;-62
2021/11/29 03:09:41;;;;;;;8.10;6.68;;;;;;;4.28;72.84;98770.06;10364328;28;20303;-63
2021/11/29 03:14:43;;;;;;;6.97;6.28;;;;;;;4.46;72.67;98779.19;10362700;28;20042;-63
2021/11/29 03:19:47;;;;;;;6.22;5.63;;;;;;;4.32;71.64;98789.97;10363201;28;20045;-63
2021/11/29 03:24:49;;;;;;;6.95;6.28;;;;;;;4.37;71.69;98787.81;10362567;28;20124;-62
2021/11/29 03:29:51;;;;;;;8.38;5.78;;;;;;;4.39;71.41;98789.38;10363626;28;20137;-62
2021/11/29 03:34:52;;;;;;;7.75;5.82;;;;;;;4.36;71.34;98797.50;10362307;28;20132;-63
2021/11/29 03:39:53;;;;;;;7.00;5.55;;;;;;;4.30;70.57;98792.72;10361390;28;20578;-63
2021/11/29 03:44:56;;;;;;;7.53;6.10;;;;;;;4.02;71.20;98799.28;10355878;28;20153;-63
2021/11/29 03:49:57;;;;;;;8.65;6.13;;;;;;;4.02;71.91;98797.50;10363375;28;20049;-62
2021/11/29 03:54:59;;;;;;;9.25;6.47;;;;;;;4.23;71.87;98802.91;10363805;28;20069;-63
2021/11/29 04:00:00;;;;;;;8.35;6.15;;;;;;;4.37;70.01;98815.00;10372413;28;20053;-63
2021/11/29 04:05:02;;;;;;;6.65;5.10;;;;;;;4.13;70.57;98801.06;10360713;28;20124;-62
2021/11/29 04:10:04;;;;;;;6.57;5.53;;;;;;;4.32;70.85;98821.56;10361573;28;20128;-63
2021/11/29 04:15:07;;;;;;;6.30;4.55;;;;;;;4.22;69.52;98824.09;10356012;28;20115;-63
2021/11/29 04:20:10;;;;;;;6.68;4.60;;;;;;;4.11;69.45;98821.44;10354626;28;20057;-62
2021/11/29 04:25:15;;;;;;;8.02;4.57;;;;;;;4.13;69.17;98833.53;10348194;28;20045;-63
2021/11/29 04:30:22;;;;;;;6.90;4.30;;;;;;;3.62;69.25;98839.13;10351507;28;20046;-63
2021/11/29 04:35:26;;;;;;;6.10;4.32;;;;;;;3.35;69.74;98837.59;10350930;28;20522;-63
2021/11/29 04:40:27;;;;;;;8.02;4.47;;;;;;;3.51;70.17;98848.69;10353622;28;20057;-62
2021/11/29 04:45:30;;;;;;;5.95;4.20;;;;;;;3.49;70.21;98837.41;10354842;28;20041;-63
2021/11/29 04:50:32;;;;;;;6.00;4.53;;;;;;;3.70;69.46;98863.94;10354842;28;20393;-63
2021/11/29 04:55:34;;;;;;;7.15;4.20;;;;;;;3.68;67.27;98868.47;10353543;28;20522;-62
2021/11/29 05:00:35;;;;;;;9.25;4.95;;;;;;;3.74;68.90;98864.56;10350361;28;20132;-62
2021/11/29 05:05:36;;;;;;;7.03;4.45;;;;;;;3.66;68.59;98867.75;10350810;28;20046;-62
2021/11/29 05:10:59;;;;;;;5.72;4.80;;;;;;;3.34;68.42;98883.25;10350661;28;20548;-62
2021/11/29 05:16:00;;;;;;;5.32;4.28;;;;;;;3.31;68.08;98883.47;10350576;28;20154;-62
2021/11/29 05:21:03;;;;;;;6.75;5.05;;;;;;;3.34;69.06;98899.03;10351897;28;20381;-62
2021/11/29 05:26:04;;;;;;;7.60;5.13;;;;;;;3.43;69.34;98902.81;10345374;28;20070;-62
2021/11/29 05:31:06;;;;;;;6.43;4.57;;;;;;;3.47;69.74;98909.53;10350666;28;20061;-62
2021/11/29 05:36:07;;;;;;;7.82;5.20;;;;;;;3.34;68.90;98914.81;10352981;28;20478;-63
2021/11/29 05:41:10;;;;;;;8.07;5.22;;;;;;;3.36;68.40;98912.91;10351863;28;20074;-62
2021/11/29 05:46:11;;;;;;;8.52;6.28;;;;;;;3.40;69.22;98929.34;10310747;28;20046;-62
2021/11/29 05:51:13;;;;;;;6.00;5.35;;;;;;;3.53;69.33;98935.41;10312302;28;20064;-63
2021/11/29 05:56:16;;;;;;;8.82;6.35;;;;;;;3.41;70.17;98931.84;10305525;28;20152;-65
2021/11/29 06:01:17;;;;;;;8.77;6.78;;;;;;;3.46;70.59;98961.28;10302347;28;20312;-64
2021/11/29 06:06:19;;;;;;;9.25;7.85;;;;;;;3.42;70.90;98964.25;10286504;28;20069;-65
2021/11/29 06:11:21;;;;;;;10.77;8.45;;;;;;;3.13;70.33;98954.84;10358205;28;20542;-66
2021/11/29 06:16:22;;;;;;;10.68;9.18;;;;;;;2.87;71.88;98979.47;10358744;28;20055;-64
2021/11/29 06:21:24;;;;;;;11.88;9.10;;;;;;;3.18;71.26;98984.31;10362483;28;20104;-65
2021/11/29 06:26:25;;;;;;;13.48;10.07;;;;;;;3.12;71.89;99000.50;10360341;28;20063;-65
2021/11/29 06:31:26;;;;;;;14.45;12.10;;;;;;;3.11;71.31;99009.34;10357942;28;20050;-65
2021/11/29 06:36:29;;;;;;;14.93;11.50;;;;;;;3.15;71.89;99013.44;10355526;28;20140;-64
2021/11/29 06:41:31;;;;;;;14.93;12.43;;;;;;;3.14;72.65;99003.88;10352023;28;20052;-66
2021/11/29 06:46:32;;;;;;;19.73;13.43;;;;;;;2.97;71.53;98980.53;10350858;28;20149;-65
2021/11/29 06:51:34;;;;;;;18.02;12.82;;;;;;;3.16;71.86;99023.00;10361472;28;20058;-65
2021/11/29 06:56:35;;;;;;;18.40;12.80;;;;;;;3.01;71.73;99013.56;10362658;28;20050;-65
2021/11/29 07:01:37;;;;;;;19.45;13.05;;;;;;;3.04;72.31;99029.13;10359704;28;20067;-65
2021/11/29 07:06:39;;;;;;;18.42;13.50;;;;;;;3.00;71.70;99031.13;10354676;28;20085;-65
2021/11/29 07:11:40;;;;;;;16.63;13.13;;;;;;;3.14;72.09;99056.47;10309574;28;20053;-65
2021/11/29 07:16:50;;;;;;;17.13;13.15;;;;;;;3.32;73.43;99059.59;10304968;28;20103;-64
2021/11/29 07:21:53;;;;;;;18.38;13.90;;;;;;;3.70;72.54;99063.13;10363072;28;20042;-67
2021/11/29 07:26:55;;;;;;;15.73;12.85;;;;;;;3.91;69.84;99076.53;10367676;28;20055;-64
2021/11/29 07:31:56;;;;;;;16.58;12.57;;;;;;;3.58;70.25;99085.06;10359851;28;20054;-63
2021/11/29 07:36:58;;;;;;;15.77;13.90;;;;;;;3.62;70.28;99099.66;10365077;28;20053;-62
2021/11/29 07:41:59;;;;;;;15.65;11.57;;;;;;;3.72;69.21;99108.59;10366116;28;20045;-64
2021/11/29 07:47:01;;;;;;;15.43;11.68;;;;;;;3.58;69.37;99095.56;10365636;28;20137;-63
2021/11/29 07:52:03;;;;;;;12.73;10.63;;;;;;;3.62;69.75;99113.66;10370712;28;20140;-64
2021/11/29 07:57:06;;;;;;;14.93;10.98;;;;;;;3.68;70.23;99112.41;10373741;28;20057;-64
2021/11/29 08:02:09;;;;;;;15.23;12.43;;;;;;;3.95;69.77;99148.25;10378713;28;20045;-63
2021/11/29 08:07:14;;;;;;;13.23;10.70;;;;;;;4.09;69.49;99158.66;10368717;28;20061;-63
2021/11/29 08:12:16;;;;;;;14.57;12.10;;;;;;;4.05;68.90;99151.91;10367573;28;20211;-62
2021/11/29 08:17:17;;;;;;;12.27;10.98;;;;;;;3.91;68.61;99152.06;10362727;28;20132;-62
2021/11/29 08:22:19;;;;;;;15.93;12.43;;;;;;;4.10;68.56;99160.34;10373625;28;20139;-63
2021/11/29 08:27:20;;;;;;;14.02;11.23;;;;;;;4.11;68.16;99156.75;10376280;28;20048;-61
2021/11/29 08:32:21;;;;;;;12.52;10.85;;;;;;;4.01;68.96;99167.09;10368803;28;22918;-62
2021/11/29 08:37:23;;;;;;;12.65;10.75;;;;;;;4.10;68.50;99176.16;10367704;28;20037;-61
2021/11/29 08:42:25;;;;;;;13.07;11.30;;;;;;;4.00;69.76;99186.47;10373461;28;20052;-62
2021/11/29 08:47:27;;;;;;;14.30;10.60;;;;;;;4.24;68.67;99193.59;10371215;28;20049;-63
2021/11/29 08:52:33;;;;;;;13.05;11.27;;;;;;;4.44;67.77;99197.44;10371091;28;20041;-61
2021/11/29 08:57:36;;;;;;;12.55;11.10;;;;;;;4.34;68.04;99206.94;10367200;28;20064;-61
2021/11/29 09:02:38;;;;;;;13.02;11.57;;;;;;;4.06;68.96;99201.00;10365569;28;20057;-62
2021/11/29 09:07:40;;;;;;;13.15;10.63;;;;;;;4.51;67.42;99206.59;10372720;28;20131;-62
2021/11/29 09:12:41;;;;;;;14.82;10.13;;;;;;;4.81;66.39;99181.59;10370414;28;20109;-63
2021/11/29 09:17:44;;;;;;;12.18;9.30;;;;;;;5.24;65.17;99210.06;10372740;28;20063;-63
2021/11/29 09:22:46;;;;;;;10.52;8.48;;;;;;;5.30;64.68;99204.31;10374188;28;20059;-64
2021/11/29 09:27:48;;;;;;;9.82;8.75;;;;;;;5.44;64.98;99215.63;10363671;28;20067;-64
2021/11/29 09:32:50;;;;;;;11.05;9.60;;;;;;;5.17;65.20;99219.38;10365263;28;20057;-62
2021/11/29 09:37:52;;;;;;;12.43;9.15;;;;;;;5.14;65.87;99212.53;10359900;28;20065;-62
2021/11/29 09:42:53;;;;;;;9.77;8.57;;;;;;;5.00;65.49;99227.69;10367096;28;20050;-62
2021/11/29 09:47:56;;;;;;;12.48;8.02;;;;;;;5.01;65.50;99234.66;10363408;28;20052;-63
2021/11/29 09:52:58;;;;;;;10.57;8.70;;;;;;;4.92;66.37;99230.91;10362338;28;20062;-63
2021/11/29 09:58:00;;;;;;;9.63;8.30;;;;;;;4.89;66.71;99231.94;10368617;28;20171;-62
2021/11/29 10:03:01;;;;;;;10.45;6.82;;;;;;;4.72;66.28;99230.56;10361592;28;20044;-62
2021/11/29 10:08:34;;;;;;;10.38;7.45;;;;;;;4.80;66.72;99235.25;10305545;28;20060;-62
2021/11/29 10:13:56;;;;;;;9.60;7.15;;;;;;;5.03;66.75;99240.66;10313765;28;20179;-63
2021/11/29 10:18:58;;;;;;;8.10;6.63;;;;;;;4.93;65.93;99237.84;10302820;28;20182;-62
2021/11/29 10:23:59;;;;;;;8.75;6.18;;;;;;;4.70;66.68;99242.16;10308945;28;20125;-63
2021/11/29 10:29:07;;;;;;;10.10;5.63;;;;;;;4.78;67.31;99247.72;10307215;28;20125;-62
2021/11/29 10:34:11;;;;;;;7.80;6.00;;;;;;;4.71;67.58;99243.84;10366219;28;20076;-64
2021/11/29 10:39:24;;;;;;;8.97;5.00;;;;;;;4.63;67.23;99243.56;10368797;28;20067;-64
2021/11/29 10:44:32;;;;;;;9.25;6.72;;;;;;;4.49;67.62;99236.63;10365057;28;20091;-65
2021/11/29 10:49:38;;;;;;;7.40;6.10;;;;;;;4.54;67.38;99253.81;10374798;28;20571;-65
2021/11/29 10:54:40;;;;;;;10.25;6.10;;;;;;;4.34;67.82;99238.56;10394235;28;20111;-65
2021/11/29 10:59:45;;;;;;;8.75;6.15;;;;;;;4.16;68.05;99217.84;10369120;28;20041;-63
2021/11/29 11:05:06;;;;;;;6.60;5.55;;;;;;;4.31;67.62;99262.50;10364468;28;20102;-62
2021/11/29 11:10:14;;;;;;;8.07;5.60;;;;;;;4.53;68.08;99261.81;10368714;28;20168;-63
2021/11/29 11:15:19;;;;;;;7.30;4.88;;;;;;;4.53;67.31;99256.56;10367347;28;20123;-64
2021/11/29 11:20:36;;;;;;;6.53;4.95;;;;;;;4.43;67.70;99266.91;10366988;28;20053;-63
2021/11/29 11:25:42;;;;;;;7.30;5.18;;;;;;;4.27;67.95;99255.78;10375830;28;20045;-63
2021/11/29 11:30:44;;;;;;;8.88;4.80;;;;;;;4.35;67.93;99270.06;10379234;28;20065;-64
2021/11/29 11:35:49;;;;;;;7.35;4.60;;;;;;;4.42;68.04;99252.06;10383383;28;20057;-63
2021/11/29 11:40:51;;;;;;;;;;;;;;;4.43;67.70;99267.75;10381496;28;20610;-64
2021/11/29 11:45:53;;;;;;;7.35;5.28;;;;;;;4.51;66.67;99248.75;10377101;28;20488;-64
2021/11/29 11:50:55;;;;;;;6.93;4.40;;;;;;;4.69;67.04;99266.84;10377349;28;20053;-64
2021/11/29 11:55:56;;;;;;;7.40;5.10;;;;;;;4.56;67.69;99262.47;10375282;28;20059;-64
2021/11/29 12:01:01;;;;;;;6.22;4.07;;;;;;;4.45;68.34;99266.81;10372531;28;20044;-64
2021/11/29 12:06:08;;;;;;;6.78;4.30;;;;;;;4.62;68.78;99265.59;10370778;28;20049;-63
2021/11/29 12:11:29;;;;;;;7.53;4.47;;;;;;;4.68;68.82;99267.78;10381336;28;20120;-62
2021/11/29 12:16:36;;;;;;;6.40;4.25;;;;;;;4.57;68.45;99269.41;10369933;28;20046;-62
2021/11/29 12:21:40;;;;;;;8.18;4.78;;;;;;;4.86;67.97;99257.72;10367889;28;20049;-62
2021/11/29 12:26:45;;;;;;;5.33;3.33;;;;;;;4.93;67.50;99272.97;10372422;28;20141;-62
2021/11/29 12:31:58;;;;;;;4.70;3.50;;;;;;;4.87;67.01;99270.78;10370539;28;20049;-61
2021/11/29 12:36:59;;;;;;;7.18;3.92;;;;;;;4.76;67.03;99270.75;10363589;28;20053;-61
2021/11/29 12:42:01;;;;;;;6.72;4.50;;;;;;;4.84;67.11;99265.75;10371983;28;20054;-61
2021/11/29 12:47:22;;;;;;;6.03;4.40;;;;;;;4.77;67.22;99253.94;10369528;28;21006;-62
2021/11/29 12:52:27;;;;;;;6.03;3.75;;;;;;;4.87;66.81;99276.06;10373500;28;20049;-62
2021/11/29 12:57:37;;;;;;;5.97;3.60;;;;;;;4.91;66.83;99288.09;10370066;28;20060;-62
2021/11/29 13:02:39;;;;;;;6.03;3.55;;;;;;;5.03;67.46;99286.34;10366915;28;20129;-61
2021/11/29 13:07:57;;;;;;;4.90;3.47;;;;;;;5.09;66.15;99292.97;10365425;28;20051;-63
2021/11/29 13:13:36;;;;;;;8.60;3.40;;;;;;;5.10;66.90;99303.41;10354472;28;20045;-63
2021/11/29 13:18:53;;;;;;;5.97;3.28;;;;;;;5.15;66.71;99300.44;10367438;28;20064;-63
2021/11/29 13:24:26;;;;;;;6.55;3.22;;;;;;;4.79;68.35;99307.44;10367160;28;20073;-63
2021/11/29 13:29:29;;;;;;;4.72;2.83;;;;;;;4.67;70.03;99308.28;10367492;28;20048;-63
2021/11/29 13:34:36;;;;;;;7.35;3.70;;;;;;;4.78;70.49;99318.91;10370966;28;20131;-62
2021/11/29 13:39:43;;;;;;;5.10;3.03;;;;;;;4.68;69.63;99307.34;10371465;28;20069;-63
2021/11/29 13:44:52;;;;;;;5.50;3.72;;;;;;;4.83;69.76;99315.94;10293839;28;20058;-63
2021/11/29 13:50:02;;;;;;;5.78;3.17;;;;;;;4.85;69.69;99322.81;10309580;28;20695;-63
2021/11/29 13:55:08;;;;;;;7.75;3.75;;;;;;;4.81;69.70;99331.88;10303520;28;20134;-63
2021/11/29 14:00:23;;;;;;;6.28;3.15;;;;;;;4.74;70.92;99343.81;10297232;28;20057;-62
2021/11/29 14:05:29;;;;;;;2.92;2.53;;;;;;;4.81;70.86;99345.06;10303499;28;20147;-64
2021/11/29 14:10:32;;;;;;;4.88;2.65;;;;;;;4.75;71.23;99338.44;10310351;28;20113;-62
2021/11/29 14:16:10;;;;;;;3.15;2.72;;;;;;;4.90;71.50;99356.75;10313679;28;20066;-61
2021/11/29 14:21:20;;;;;;;3.05;2.28;;;;;;;4.82;71.86;99365.22;10361248;28;20103;-63
2021/11/29 14:26:34;;;;;;;3.08;2.30;;;;;;;4.75;72.86;99379.78;10297031;28;20056;-61
2021/11/29 14:31:40;;;;;;;3.90;2.42;;;;;;;4.86;73.05;99382.47;10323290;28;20065;-66
2021/11/29 14:36:47;;;;;;;3.28;1.98;;;;;;;4.84;72.82;99394.94;10317032;28;20124;-64
2021/11/29 14:41:55;;;;;;;3.90;2.40;;;;;;;4.80;73.44;99390.84;10325801;28;20391;-63
2021/11/29 14:46:56;;;;;;;3.28;2.35;;;;;;;4.93;73.54;99411.91;10324369;28;20176;-65
2021/11/29 14:52:01;;;;;;;2.40;2.20;;;;;;;5.00;73.62;99417.59;10329410;28;20153;-63
2021/11/29 14:57:05;;;;;;;3.55;1.75;;;;;;;4.81;73.74;99426.81;10323167;28;20054;-63
2021/11/29 15:02:08;;;;;;;3.35;2.28;;;;;;;4.73;74.53;99429.16;10316870;28;20092;-64
2021/11/29 15:07:13;;;;;;;3.05;2.30;;;;;;;4.82;74.65;99446.09;10313388;28;20053;-63
2021/11/29 15:12:20;;;;;;;4.35;2.10;;;;;;;4.75;74.48;99435.16;10325767;28;20559;-61
2021/11/29 15:17:25;;;;;;;3.28;2.30;;;;;;;4.80;74.72;99448.84;10303438;28;20052;-63
2021/11/29 15:22:29;;;;;;;2.80;2.00;;;;;;;4.59;75.51;99472.25;10304282;28;20117;-63
2021/11/29 15:27:37;;;;;;;3.60;2.30;;;;;;;4.77;75.86;99483.34;10307590;28;20688;-63
2021/11/29 15:32:52;;;;;;;3.13;2.38;;;;;;;4.88;74.89;99485.22;10310514;28;20057;-63
2021/11/29 15:38:24;;;;;;;2.65;1.92;;;;;;;4.88;74.75;99494.00;10307740;28;20054;-64
2021/11/29 15:43:40;;;;;;;3.08;2.55;;;;;;;4.83;74.48;99501.38;10296316;28;20054;-63
2021/11/29 15:48:44;;;;;;;7.57;3.92;;;;;;;4.80;74.39;99517.41;10299079;28;20038;-64
2021/11/29 15:53:48;;;;;;;3.80;3.17;;;;;;;4.90;74.74;99528.19;10298329;28;20076;-65
2021/11/29 15:58:51;;;;;;;5.15;2.95;;;;;;;4.92;73.91;99537.69;10302980;28;20102;-64
2021/11/29 16:03:54;;;;;;;3.85;2.55;;;;;;;4.68;74.63;99534.06;10302378;28;20058;-64
2021/11/29 16:08:56;;;;;;;3.83;3.28;;;;;;;4.73;73.30;99550.44;10302562;28;20455;-64
2021/11/29 16:13:59;;;;;;;5.65;4.00;;;;;;;4.50;72.25;99544.06;10304703;28;20654;-63
2021/11/29 16:19:01;;;;;;;5.07;3.80;;;;;;;4.27;71.87;99550.84;10320591;28;20053;-64
2021/11/29 16:24:03;;;;;;;6.47;4.68;;;;;;;4.15;72.21;99569.13;10307240;28;20078;-64
2021/11/29 16:29:04;;;;;;;5.70;4.38;;;;;;;4.34;72.86;99576.69;10310897;28;20129;-64
2021/11/29 16:34:07;;;;;;;6.45;4.65;;;;;;;4.43;71.35;99575.25;10303976;28;20524;-63
2021/11/29 16:39:08;;;;;;;6.40;5.60;;;;;;;4.39;71.95;99582.50;10305123;28;20745;-62
2021/11/29 16:44:10;;;;;;;6.32;5.63;;;;;;;4.59;71.83;99586.47;10311280;28;20590;-63
2021/11/29 16:49:11;;;;;;;7.57;6.28;;;;;;;4.91;71.56;99599.28;10312144;28;20209;-64
2021/11/29 16:54:15;;;;;;;8.70;6.43;;;;;;;4.90;70.98;99613.41;10312494;28;20612;-63
2021/11/29 16:59:20;;;;;;;6.20;5.43;;;;;;;5.02;70.58;99626.75;10310381;28;20051;-63
2021/11/29 17:04:21;;;;;;;6.88;5.75;;;;;;;5.02;71.00;99618.81;10304945;28;20089;-64
2021/11/29 17:09:23;;;;;;;7.35;6.47;;;;;;;5.14;70.92;99625.91;10303601;28;20402;-62
2021/11/29 17:14:24;;;;;;;5.90;5.22;;;;;;;5.21;71.03;99640.38;10308904;28;20124;-63
2021/11/29 17:19:26;;;;;;;6.22;5.50;;;;;;;5.21;71.00;99643.00;10301368;28;20460;-64
2021/11/29 17:24:27;;;;;;;6.25;5.65;;;;;;;5.17;70.95;99646.78;10302323;28;20188;-64
2021/11/29 17:29:29;;;;;;;6.57;5.90;;;;;;;5.17;71.75;99657.34;10306050;28;20240;-62
2021/11/29 17:34:30;;;;;;;6.55;5.88;;;;;;;5.16;72.08;99660.94;10306512;28;21836;-62
2021/11/29 17:39:33;;;;;;;8.98;7.13;;;;;;;5.00;71.73;99615.44;10304166;28;21298;-62
2021/11/29 17:44:35;;;;;;;8.82;7.95;;;;;;;5.17;72.26;99652.06;10314599;28;20527;-60
2021/11/29 17:49:38;;;;;;;7.47;6.75;;;;;;;5.19;72.30;99649.34;10321473;28;20060;-64
2021/11/29 17:54:40;;;;;;;8.63;7.80;;;;;;;5.25;72.63;99662.94;10329013;28;20117;-63
2021/11/29 17:59:41;;;;;;;9.20;8.30;;;;;;;5.31;71.39;99670.47;10326345;28;20081;-60
2021/11/29 18:04:43;;;;;;;11.20;8.73;;;;;;;5.14;71.65;99671.59;10326314;28;20172;-61
2021/11/29 18:14:45;;;;;;;9.65;8.65;;;;;;;5.34;72.13;99694.94;10323874;28;20050;-61
2021/11/29 18:19:47;;;;;;;10.70;8.95;;;;;;;5.24;71.72;99685.03;10327835;28;20062;-62
2021/11/29 18:24:48;;;;;;;9.73;8.82;;;;;;;5.32;71.18;99698.53;10325362;28;20085;-61
2021/11/29 18:29:50;;;;;;;10.13;9.13;;;;;;;5.20;72.61;99694.09;10323020;28;20512;-61
2021/11/29 18:34:51;;;;;;;9.35;7.78;;;;;;;5.21;72.57;99719.53;10326528;28;20057;-61
2021/11/29 18:39:53;;;;;;;8.82;7.50;;;;;;;5.04;73.65;99725.06;10327042;28;20494;-61
2021/11/29 18:44:55;;;;;;;8.82;7.43;;;;;;;5.03;74.22;99728.66;10325761;28;20050;-63
2021/11/29 18:49:58;;;;;;;10.77;7.97;;;;;;;5.16;73.70;99745.38;10327758;28;20081;-63
2021/11/29 18:55:00;;;;;;;9.45;8.50;;;;;;;5.18;73.55;99746.13;10326242;28;20410;-61
2021/11/29 19:00:03;;;;;;;9.07;8.15;;;;;;;5.09;73.38;99738.81;10326711;28;20061;-62
2021/11/29 19:05:05;;;;;;;11.23;7.93;;;;;;;5.07;73.49;99751.25;10321068;28;20084;-63
2021/11/29 19:10:08;;;;;;;8.82;7.90;;;;;;;5.02;73.32;99756.00;10325917;28;20485;-63
2021/11/29 19:15:10;;;;;;;8.98;8.05;;;;;;;5.02;73.79;99756.00;10323763;28;20224;-63
2021/11/29 19:20:12;;;;;;;11.73;9.00;;;;;;;5.03;73.76;99760.31;10320993;28;20129;-63
2021/11/29 19:25:13;;;;;;;10.75;8.63;;;;;;;5.02;74.03;99759.47;10326897;28;20564;-62
2021/11/29 19:30:16;;;;;;;12.05;9.50;;;;;;;5.00;73.35;99768.41;10318550;28;20074;-62
2021/11/29 19:35:18;;;;;;;10.35;9.25;;;;;;;5.00;73.50;99782.47;10322955;28;20064;-61
2021/11/29 19:40:33;;;;;;;10.98;9.88;;;;;;;4.95;73.83;99776.63;10322650;28;20050;-62
2021/11/29 19:45:35;;;;;;;12.18;9.95;;;;;;;5.15;73.32;99791.19;10334604;28;20054;-62
2021/11/29 19:50:40;;;;;;;11.07;9.82;;;;;;;5.13;72.26;99787.78;10328373;28;20670;-62
2021/11/29 19:55:41;;;;;;;13.90;9.45;;;;;;;5.02;72.58;99801.69;10328264;28;20493;-63
2021/11/29 20:00:45;;;;;;;11.05;9.48;;;;;;;5.00;72.66;99800.06;10321446;28;20475;-61
2021/11/29 20:05:50;;;;;;;12.57;9.90;;;;;;;5.06;73.04;99807.59;10326927;28;20343;-62
2021/11/29 20:10:51;;;;;;;10.93;9.82;;;;;;;5.11;72.80;99800.25;10329632;28;20059;-62
2021/11/29 20:15:53;;;;;;;12.00;10.75;;;;;;;5.20;72.48;99791.72;10321043;28;20094;-62
2021/11/29 20:20:55;;;;;;;10.50;9.50;;;;;;;5.25;72.90;99813.38;10312947;28;20054;-63
2021/11/29 20:25:57;;;;;;;12.15;10.38;;;;;;;5.21;72.65;99809.25;10323674;28;21311;-62
2021/11/29 20:30:58;;;;;;;11.63;10.43;;;;;;;5.17;72.64;99807.75;10326804;28;20061;-63
2021/11/29 20:36:00;;;;;;;10.98;9.25;;;;;;;5.03;73.38;99805.16;10322056;28;20129;-63
2021/11/29 20:41:04;;;;;;;8.63;7.70;;;;;;;4.89;74.15;99791.06;10320916;28;20189;-64
2021/11/29 20:46:07;;;;;;;11.67;8.77;;;;;;;4.80;74.84;99796.94;10323513;28;20611;-63
2021/11/29 20:51:08;;;;;;;10.23;9.23;;;;;;;4.96;74.93;99824.00;10327012;28;20054;-62
2021/11/29 20:56:11;;;;;;;9.40;7.63;;;;;;;4.95;74.82;99826.75;10329525;28;20057;-63
2021/11/29 21:01:13;;;;;;;9.40;7.88;;;;;;;4.99;75.07;99832.69;10318006;28;20041;-62
2021/11/29 21:06:15;;;;;;;10.23;8.40;;;;;;;4.85;75.18;99842.34;10322681;28;20138;-63
2021/11/29 21:11:18;;;;;;;9.07;8.18;;;;;;;4.73;75.16;99816.75;10324940;28;20055;-63
2021/11/29 21:16:19;;;;;;;9.55;8.55;;;;;;;4.83;75.51;99823.09;10325754;28;20050;-63
2021/11/29 21:21:22;;;;;;;10.20;7.38;;;;;;;4.90;75.27;99813.84;10316073;28;20145;-63
2021/11/29 21:26:23;;;;;;;9.30;8.40;;;;;;;4.88;75.02;99812.25;10307977;28;20112;-63
2021/11/29 21:31:25;;;;;;;9.02;8.13;;;;;;;4.96;75.53;99818.75;10309305;28;20047;-64
2021/11/29 21:36:26;;;;;;;9.23;8.32;;;;;;;4.84;75.46;99819.53;10310473;28;20156;-63
2021/11/29 21:41:29;;;;;;;8.65;7.57;;;;;;;4.89;75.40;99846.44;10310780;28;20078;-65
2021/11/29 21:46:30;;;;;;;8.50;7.70;;;;;;;4.80;75.69;99847.03;10309688;28;20050;-64
2021/11/29 21:51:32;;;;;;;8.32;7.40;;;;;;;4.69;76.04;99858.25;10312470;28;20050;-65
2021/11/29 21:56:34;;;;;;;7.90;7.10;;;;;;;4.59;76.27;99820.22;10313082;28;20064;-63
2021/11/29 22:01:36;;;;;;;9.57;7.35;;;;;;;4.66;76.95;99847.06;10310046;28;20100;-63
2021/11/29 22:06:38;;;;;;;7.40;6.78;;;;;;;4.62;77.02;99829.75;10315826;28;20088;-64
2021/11/29 22:11:40;;;;;;;11.23;8.52;;;;;;;4.58;77.36;99827.28;10311989;28;20038;-63
2021/11/29 22:16:42;;;;;;;9.00;6.95;;;;;;;4.67;77.31;99836.41;10312543;28;20522;-63
2021/11/29 22:21:46;;;;;;;7.97;7.18;;;;;;;4.80;77.31;99838.28;10308114;28;20050;-64
2021/11/29 22:26:48;;;;;;;10.75;7.35;;;;;;;4.69;77.57;99842.44;10315786;28;21767;-63
2021/11/29 22:31:50;;;;;;;8.15;7.45;;;;;;;4.46;78.11;99820.16;10320324;28;20046;-64
2021/11/29 22:36:52;;;;;;;8.90;7.82;;;;;;;4.63;79.16;99836.72;10322032;28;20112;-64
2021/11/29 22:41:53;;;;;;;10.50;7.35;;;;;;;4.67;78.85;99838.19;10335074;28;20463;-64
2021/11/29 22:46:55;;;;;;;8.60;7.47;;;;;;;4.75;77.78;99835.94;10309302;28;20165;-64
2021/11/29 22:51:57;;;;;;;10.35;7.07;;;;;;;4.69;77.37;99828.41;10308012;28;20057;-63
2021/11/29 22:56:59;;;;;;;7.80;6.60;;;;;;;4.70;78.39;99840.63;10314083;28;20074;-63
2021/11/29 23:02:01;;;;;;;9.80;6.45;;;;;;;4.63;78.34;99842.00;10321521;28;20132;-63
2021/11/29 23:07:03;;;;;;;7.43;6.60;;;;;;;4.62;78.90;99841.13;10329260;28;20124;-64
2021/11/29 23:12:05;;;;;;;7.18;6.40;;;;;;;4.74;78.30;99842.16;10333114;28;20047;-63
2021/11/29 23:17:08;;;;;;;8.32;6.18;;;;;;;4.58;78.71;99829.94;10333467;28;20049;-63
2021/11/29 23:22:09;;;;;;;7.57;6.45;;;;;;;4.59;79.33;99836.91;10347845;28;20102;-61
2021/11/29 23:27:11;;;;;;;7.45;6.75;;;;;;;4.59;79.13;99842.19;10346754;28;20053;-63
2021/11/29 23:32:12;;;;;;;7.82;6.63;;;;;;;4.65;79.37;99829.53;10342165;28;20050;-64
2021/11/29 23:37:14;;;;;;;7.57;6.30;;;;;;;4.58;78.71;99829.94;10334252;28;20050;-64
2021/11/29 23:42:16;;;;;;;7.45;6.28;;;;;;;4.70;79.38;99838.88;10340984;28;20050;-63
2021/11/29 23:47:32;;;;;;;8.02;7.20;;;;;;;4.69;79.32;99834.53;10331134;28;20121;-65